createdAt,value
2018-12-31T00:00:55.925Z,75.20
2018-12-31T00:03:56.010Z,75.20
2018-12-31T00:06:55.439Z,75.30
2018-12-31T00:09:54.967Z,75.30
2018-12-31T00:12:54.999Z,75.30
2018-12-31T00:15:55.103Z,75.20
2018-12-31T00:18:55.221Z,75.30
2018-12-31T00:21:54.564Z,75.30
2018-12-31T00:24:54.059Z,75.40
2018-12-31T00:27:53.271Z,75.60
2018-12-31T00:30:53.154Z,75.40
2018-12-31T00:33:53.046Z,75.40
2018-12-31T00:37:00.006Z,75.50
2018-12-31T00:40:02.520Z,75.40
2018-12-31T00:43:02.734Z,75.40
2018-12-31T00:46:03.094Z,75.50
2018-12-31T00:49:03.127Z,75.40
2018-12-31T00:52:02.809Z,75.50
2018-12-31T00:55:02.239Z,75.50
2018-12-31T00:58:01.587Z,75.50
2018-12-31T01:01:00.882Z,75.50
2018-12-31T01:04:00.798Z,76.40
2018-12-31T01:07:01.227Z,75.50
2018-12-31T01:10:01.483Z,75.50
2018-12-31T01:13:01.751Z,75.50
2018-12-31T01:16:01.122Z,75.50
2018-12-31T01:19:01.030Z,75.60
2018-12-31T01:22:01.404Z,75.50
2018-12-31T01:25:00.869Z,75.60
2018-12-31T01:28:00.141Z,75.60
2018-12-31T01:30:59.334Z,76.00
2018-12-31T01:34:00.170Z,75.60
2018-12-31T01:36:59.437Z,75.50
2018-12-31T01:40:00.097Z,75.60
2018-12-31T01:43:02.085Z,75.60
2018-12-31T01:46:02.085Z,75.20
2018-12-31T01:49:02.646Z,75.60
2018-12-31T01:52:01.811Z,75.50
2018-12-31T01:55:04.108Z,75.60
2018-12-31T01:58:05.793Z,75.60
2018-12-31T02:01:05.888Z,75.60
2018-12-31T02:04:05.514Z,75.60
2018-12-31T02:07:04.856Z,75.60
2018-12-31T02:10:05.402Z,75.60
2018-12-31T02:13:05.766Z,75.70
2018-12-31T02:16:05.312Z,75.70
2018-12-31T02:19:05.647Z,75.70
2018-12-31T02:22:06.057Z,75.70
2018-12-31T02:25:08.575Z,75.70
2018-12-31T02:28:07.802Z,75.70
2018-12-31T02:31:07.523Z,75.80
2018-12-31T02:34:07.251Z,75.70
2018-12-31T02:37:06.636Z,75.70
2018-12-31T02:40:06.304Z,75.80
2018-12-31T02:43:16.919Z,75.80
2018-12-31T02:46:17.450Z,75.70
2018-12-31T02:49:18.788Z,75.70
2018-12-31T02:52:18.291Z,75.70
2018-12-31T02:55:17.707Z,75.70
2018-12-31T02:58:17.069Z,75.80
2018-12-31T03:01:16.265Z,75.80
2018-12-31T03:04:15.471Z,75.80
2018-12-31T03:07:15.174Z,76.00
2018-12-31T03:10:14.855Z,75.80
2018-12-31T03:13:18.012Z,75.80
2018-12-31T03:16:17.150Z,75.80
2018-12-31T03:19:17.261Z,75.80
2018-12-31T03:22:16.746Z,75.90
2018-12-31T03:25:17.386Z,75.90
2018-12-31T03:28:16.609Z,75.90
2018-12-31T03:31:15.800Z,75.90
2018-12-31T03:34:15.475Z,75.90
2018-12-31T03:37:14.679Z,76.00
2018-12-31T03:40:14.854Z,76.00
2018-12-31T03:43:14.953Z,76.00
2018-12-31T03:46:14.144Z,76.00
2018-12-31T03:49:13.516Z,76.00
2018-12-31T03:52:19.309Z,76.00
2018-12-31T03:55:18.586Z,76.00
2018-12-31T03:58:20.069Z,76.00
2018-12-31T04:01:19.280Z,75.90
2018-12-31T04:04:18.470Z,75.90
2018-12-31T04:07:18.245Z,76.00
2018-12-31T04:10:17.440Z,75.90
2018-12-31T04:13:17.337Z,76.00
2018-12-31T04:16:16.735Z,76.10
2018-12-31T04:19:16.028Z,76.10
2018-12-31T04:22:15.511Z,76.10
2018-12-31T04:25:14.927Z,76.10
2018-12-31T04:28:14.113Z,76.00
2018-12-31T04:31:13.266Z,76.10
2018-12-31T04:34:12.478Z,76.00
2018-12-31T04:37:14.804Z,76.00
2018-12-31T04:40:14.195Z,76.10
2018-12-31T04:43:13.358Z,76.00
2018-12-31T04:46:12.540Z,76.10
2018-12-31T04:49:11.743Z,76.10
2018-12-31T04:52:11.023Z,76.10
2018-12-31T04:55:10.547Z,76.10
2018-12-31T04:58:09.728Z,76.10
2018-12-31T05:01:09.837Z,76.10
2018-12-31T05:04:09.182Z,76.10
2018-12-31T05:07:09.334Z,76.10
2018-12-31T05:10:08.499Z,76.20
2018-12-31T05:13:07.636Z,76.10
2018-12-31T05:16:08.433Z,76.10
2018-12-31T05:19:07.857Z,76.10
2018-12-31T05:22:07.342Z,76.10
2018-12-31T05:25:06.999Z,76.20
2018-12-31T05:28:06.409Z,76.10
2018-12-31T05:31:06.371Z,76.10
2018-12-31T05:34:07.672Z,76.10
2018-12-31T05:37:07.310Z,76.00
2018-12-31T05:40:07.398Z,76.20
2018-12-31T05:43:07.430Z,76.10
2018-12-31T05:46:07.445Z,76.10
2018-12-31T05:49:06.675Z,76.10
2018-12-31T05:52:06.038Z,76.10
2018-12-31T05:55:05.579Z,76.20
2018-12-31T05:58:05.035Z,76.20
2018-12-31T06:01:04.384Z,76.20
2018-12-31T06:04:03.990Z,76.20
2018-12-31T06:07:03.537Z,76.10
2018-12-31T06:10:09.938Z,76.20
2018-12-31T06:13:09.439Z,75.50
2018-12-31T06:16:08.680Z,76.10
2018-12-31T06:19:08.166Z,76.20
2018-12-31T06:22:08.547Z,76.10
2018-12-31T06:25:08.793Z,76.20
2018-12-31T06:28:08.372Z,76.20
2018-12-31T06:31:07.928Z,76.10
2018-12-31T06:34:07.210Z,76.10
2018-12-31T06:37:06.459Z,76.30
2018-12-31T06:40:06.209Z,76.80
2018-12-31T06:43:05.585Z,76.10
2018-12-31T06:46:23.292Z,76.20
2018-12-31T06:49:23.050Z,76.20
2018-12-31T06:52:22.457Z,76.10
2018-12-31T06:55:21.587Z,76.10
2018-12-31T06:58:21.858Z,76.20
2018-12-31T07:01:21.339Z,76.20
2018-12-31T07:04:21.735Z,76.20
2018-12-31T07:07:21.951Z,76.10
2018-12-31T07:10:21.189Z,76.20
2018-12-31T07:13:21.393Z,76.20
2018-12-31T07:16:21.198Z,76.80
2018-12-31T07:19:20.534Z,76.20
2018-12-31T07:22:19.712Z,76.20
2018-12-31T07:25:19.557Z,77.10
2018-12-31T07:28:21.810Z,76.20
2018-12-31T07:31:20.923Z,76.40
2018-12-31T07:34:22.920Z,76.20
2018-12-31T07:37:23.282Z,76.30
2018-12-31T07:40:22.574Z,76.30
2018-12-31T07:43:21.767Z,76.20
2018-12-31T07:46:21.218Z,76.20
2018-12-31T07:49:20.973Z,76.20
2018-12-31T07:52:20.430Z,76.20
2018-12-31T07:55:19.889Z,76.20
2018-12-31T07:58:19.364Z,76.20
2018-12-31T08:01:18.940Z,76.20
2018-12-31T08:04:19.337Z,76.30
2018-12-31T08:07:19.010Z,76.10
2018-12-31T08:10:18.227Z,76.20
2018-12-31T08:13:18.406Z,76.20
2018-12-31T08:16:17.692Z,76.30
2018-12-31T08:19:16.879Z,76.30
2018-12-31T08:22:16.069Z,76.30
2018-12-31T08:25:16.605Z,76.20
2018-12-31T08:28:16.980Z,76.20
2018-12-31T08:31:17.367Z,76.20
2018-12-31T08:34:17.368Z,76.20
2018-12-31T08:37:17.842Z,76.20
2018-12-31T08:40:17.285Z,76.10
2018-12-31T08:43:19.999Z,76.20
2018-12-31T08:46:19.808Z,76.20
2018-12-31T08:49:19.941Z,76.30
2018-12-31T08:52:19.352Z,76.20
2018-12-31T08:55:18.815Z,76.20
2018-12-31T08:58:20.172Z,76.30
2018-12-31T09:01:20.835Z,76.10
2018-12-31T09:04:20.696Z,76.10
2018-12-31T09:07:26.474Z,76.00
2018-12-31T09:10:25.912Z,76.00
2018-12-31T09:13:26.273Z,75.90
2018-12-31T09:16:25.990Z,75.80
2018-12-31T09:19:27.084Z,75.90
2018-12-31T09:22:26.598Z,75.90
2018-12-31T09:25:26.947Z,76.60
2018-12-31T09:28:26.671Z,75.90
2018-12-31T09:31:26.886Z,75.90
2018-12-31T09:34:26.446Z,75.90
2018-12-31T09:37:26.974Z,75.90
2018-12-31T09:40:27.316Z,75.90
2018-12-31T09:43:28.839Z,75.80
2018-12-31T09:46:28.387Z,75.80
2018-12-31T09:49:28.760Z,75.80
2018-12-31T09:52:28.345Z,75.80
2018-12-31T09:55:28.542Z,75.70
2018-12-31T09:58:28.819Z,75.60
2018-12-31T10:01:28.423Z,75.80
2018-12-31T10:04:28.978Z,75.80
2018-12-31T10:07:28.514Z,75.70
2018-12-31T10:10:28.133Z,75.70
2018-12-31T10:13:27.683Z,75.70
2018-12-31T10:16:27.191Z,75.60
2018-12-31T10:19:26.579Z,75.60
2018-12-31T10:22:25.790Z,75.50
2018-12-31T10:25:28.819Z,75.50
2018-12-31T10:28:29.072Z,75.40
2018-12-31T10:31:29.034Z,75.30
2018-12-31T10:34:29.778Z,75.30
2018-12-31T10:37:29.694Z,75.10
2018-12-31T10:40:32.623Z,75.20
2018-12-31T10:43:31.970Z,75.20
2018-12-31T10:46:32.097Z,75.20
2018-12-31T10:49:33.206Z,75.20
2018-12-31T10:59:32.083Z,75.10
2018-12-31T11:02:31.547Z,75.10
2018-12-31T11:05:36.045Z,75.30
2018-12-31T11:08:35.985Z,75.20
2018-12-31T11:11:35.432Z,75.30
2018-12-31T11:14:34.902Z,75.30
2018-12-31T11:17:34.606Z,75.30
2018-12-31T11:20:34.178Z,75.30
2018-12-31T11:23:33.563Z,75.20
2018-12-31T11:26:34.043Z,75.10
2018-12-31T11:29:33.542Z,75.10
2018-12-31T11:32:33.639Z,75.20
2018-12-31T11:35:33.593Z,75.20
2018-12-31T11:38:32.849Z,75.20
2018-12-31T11:41:32.252Z,75.20
2018-12-31T11:44:31.902Z,75.30
2018-12-31T11:47:31.239Z,75.30
2018-12-31T11:50:35.595Z,75.30
2018-12-31T11:53:35.500Z,75.40
2018-12-31T11:56:41.304Z,75.30
2018-12-31T11:59:40.790Z,75.30
2018-12-31T12:02:40.833Z,75.50
2018-12-31T12:05:40.062Z,75.60
2018-12-31T12:08:39.695Z,75.70
2018-12-31T12:11:38.880Z,75.80
2018-12-31T12:14:38.139Z,75.80
2018-12-31T12:17:37.521Z,76.00
2018-12-31T12:20:37.012Z,76.00
2018-12-31T12:23:37.250Z,76.00
2018-12-31T12:26:36.479Z,76.00
2018-12-31T12:29:37.071Z,76.10
2018-12-31T12:32:37.057Z,76.10
2018-12-31T12:35:37.174Z,76.10
2018-12-31T12:38:37.781Z,76.10
2018-12-31T12:41:38.108Z,76.10
2018-12-31T12:44:37.532Z,76.10
2018-12-31T12:47:37.611Z,76.20
2018-12-31T12:50:37.605Z,76.20
2018-12-31T12:53:38.120Z,76.20
2018-12-31T12:56:40.443Z,76.30
2018-12-31T12:59:41.658Z,76.30
2018-12-31T13:02:42.293Z,76.20
2018-12-31T13:05:41.570Z,76.10
2018-12-31T13:08:40.979Z,76.10
2018-12-31T13:11:41.337Z,76.10
2018-12-31T13:14:42.799Z,76.10
2018-12-31T13:17:42.265Z,76.00
2018-12-31T13:20:42.075Z,76.00
2018-12-31T13:23:42.105Z,75.90
2018-12-31T13:26:43.772Z,75.90
2018-12-31T13:29:43.298Z,75.90
2018-12-31T13:32:43.156Z,76.00
2018-12-31T13:35:42.872Z,76.10
2018-12-31T13:38:43.566Z,76.40
2018-12-31T13:41:43.722Z,77.20
2018-12-31T13:44:43.589Z,76.90
2018-12-31T13:47:43.371Z,76.30
2018-12-31T13:50:43.079Z,76.30
2018-12-31T13:53:43.173Z,76.50
2018-12-31T13:56:45.014Z,76.50
2018-12-31T13:59:44.751Z,76.60
2018-12-31T14:02:45.747Z,76.70
2018-12-31T14:05:45.337Z,76.70
2018-12-31T14:08:45.603Z,76.70
2018-12-31T14:11:47.018Z,76.70
2018-12-31T14:14:46.538Z,76.70
2018-12-31T14:17:46.989Z,76.70
2018-12-31T14:20:50.257Z,76.70
2018-12-31T14:23:49.841Z,76.70
2018-12-31T14:26:49.117Z,76.70
2018-12-31T14:29:48.519Z,76.80
2018-12-31T14:32:47.819Z,76.70
2018-12-31T14:35:52.008Z,76.70
2018-12-31T14:38:52.075Z,78.50
2018-12-31T14:41:51.398Z,79.00
2018-12-31T14:44:52.795Z,79.60
2018-12-31T14:47:52.340Z,79.10
2018-12-31T14:50:52.612Z,78.60
2018-12-31T14:53:52.147Z,78.10
2018-12-31T14:56:52.279Z,78.10
2018-12-31T14:59:52.006Z,78.00
2018-12-31T15:02:51.463Z,77.90
2018-12-31T15:05:50.944Z,77.80
2018-12-31T15:08:50.589Z,77.70
2018-12-31T15:11:50.829Z,77.70
2018-12-31T15:14:51.362Z,77.70
2018-12-31T15:17:51.676Z,77.60
2018-12-31T15:20:51.095Z,77.70
2018-12-31T15:23:54.448Z,77.70
2018-12-31T15:26:54.043Z,77.70
2018-12-31T15:29:53.431Z,77.70
2018-12-31T15:32:54.873Z,77.80
2018-12-31T15:35:54.325Z,77.80
2018-12-31T15:38:55.665Z,77.70
2018-12-31T15:41:55.114Z,77.80
2018-12-31T15:44:54.923Z,77.80
2018-12-31T15:48:01.028Z,77.70
2018-12-31T15:51:01.369Z,77.70
2018-12-31T15:54:01.175Z,77.70
2018-12-31T15:57:01.282Z,77.80
2018-12-31T16:00:03.753Z,77.80
2018-12-31T16:03:05.950Z,77.90
2018-12-31T16:06:12.088Z,78.60
2018-12-31T16:09:11.461Z,77.90
2018-12-31T16:12:10.954Z,78.00
2018-12-31T16:15:10.480Z,77.90
2018-12-31T16:18:11.042Z,78.00
2018-12-31T16:21:10.898Z,78.60
2018-12-31T16:24:11.020Z,77.90
2018-12-31T16:27:11.466Z,77.90
2018-12-31T16:30:13.741Z,78.00
2018-12-31T16:33:13.200Z,78.00
2018-12-31T16:36:12.764Z,78.00
2018-12-31T16:39:14.262Z,78.10
2018-12-31T16:42:14.477Z,78.10
2018-12-31T16:45:14.180Z,78.10
2018-12-31T16:48:15.862Z,78.20
2018-12-31T16:51:16.072Z,78.20
2018-12-31T16:54:15.472Z,78.20
2018-12-31T16:57:16.925Z,78.20
2018-12-31T17:00:16.211Z,78.20
2018-12-31T17:03:16.596Z,78.30
2018-12-31T17:06:18.207Z,77.70
2018-12-31T17:09:17.481Z,78.30
2018-12-31T17:12:16.932Z,78.30
2018-12-31T17:15:18.274Z,78.20
2018-12-31T17:18:20.241Z,78.20
2018-12-31T17:21:20.384Z,78.20
2018-12-31T17:24:20.534Z,78.30
2018-12-31T17:27:19.940Z,78.20
2018-12-31T17:30:19.509Z,78.20
2018-12-31T17:33:18.959Z,78.20
2018-12-31T17:36:18.374Z,78.20
2018-12-31T17:39:17.817Z,78.20
2018-12-31T17:42:17.379Z,78.20
2018-12-31T17:45:22.923Z,78.20
2018-12-31T17:48:18.569Z,78.20
2018-12-31T17:51:18.347Z,78.20
2018-12-31T17:54:18.414Z,78.20
2018-12-31T17:57:18.519Z,78.30
2018-12-31T18:00:17.947Z,78.20
2018-12-31T18:03:17.174Z,78.30
2018-12-31T18:06:16.773Z,78.30
2018-12-31T18:09:16.990Z,78.30
2018-12-31T18:12:18.658Z,78.30
2018-12-31T18:15:18.118Z,78.30
2018-12-31T18:18:17.846Z,78.30
2018-12-31T18:21:17.075Z,78.30
2018-12-31T18:24:17.167Z,78.40
2018-12-31T18:27:17.309Z,78.70
2018-12-31T18:30:16.516Z,78.40
2018-12-31T18:37:04.747Z,78.40
2018-12-31T18:40:04.674Z,78.40
2018-12-31T18:43:06.872Z,78.50
2018-12-31T18:46:07.467Z,78.50
2018-12-31T18:49:07.443Z,78.50
2018-12-31T18:52:06.887Z,78.50
2018-12-31T18:55:06.707Z,78.60
2018-12-31T18:58:06.294Z,78.50
2018-12-31T19:01:09.908Z,78.50
2018-12-31T19:04:09.645Z,78.50
2018-12-31T19:07:09.418Z,78.50
2018-12-31T19:10:09.050Z,78.50
2018-12-31T19:13:08.351Z,78.60
2018-12-31T19:16:11.315Z,78.50
2018-12-31T19:19:11.226Z,78.50
2018-12-31T19:22:11.726Z,78.60
2018-12-31T19:25:11.348Z,78.60
2018-12-31T19:28:11.642Z,78.50
2018-12-31T19:31:11.261Z,78.60
2018-12-31T19:37:40.100Z,78.60
2018-12-31T19:40:44.863Z,78.50
2018-12-31T19:43:45.086Z,78.60
2018-12-31T19:46:52.167Z,78.60
2018-12-31T19:49:51.621Z,78.70
2018-12-31T19:52:52.294Z,78.70
2018-12-31T19:55:51.473Z,78.70
2018-12-31T19:58:51.911Z,78.80
2018-12-31T20:01:54.358Z,78.80
2018-12-31T20:04:53.843Z,78.70
2018-12-31T20:07:55.890Z,78.70
2018-12-31T20:10:55.187Z,78.80
2018-12-31T20:13:56.153Z,78.80
2018-12-31T20:16:56.258Z,78.80
2018-12-31T20:19:56.486Z,78.80
2018-12-31T20:22:56.342Z,78.80
2018-12-31T20:25:57.591Z,78.80
2018-12-31T20:28:57.147Z,78.80
2018-12-31T20:31:56.568Z,78.80
2018-12-31T20:34:56.063Z,78.80
2018-12-31T20:37:55.732Z,78.80
2018-12-31T20:40:57.050Z,78.80
2018-12-31T20:43:56.354Z,78.90
2018-12-31T20:46:55.920Z,78.90
2018-12-31T20:49:55.304Z,78.80
2018-12-31T20:52:54.833Z,78.90
2018-12-31T20:55:55.262Z,78.90
2018-12-31T20:58:55.586Z,78.90
2018-12-31T21:01:56.259Z,78.90
2018-12-31T21:04:55.650Z,78.80
2018-12-31T21:07:54.903Z,79.70
2018-12-31T21:10:54.204Z,79.00
2018-12-31T21:13:53.459Z,79.00
2018-12-31T21:16:53.675Z,79.10
2018-12-31T21:19:55.654Z,78.90
2018-12-31T21:22:55.090Z,79.10
2018-12-31T21:25:54.303Z,79.10
2018-12-31T21:28:57.999Z,79.10
2018-12-31T21:31:58.240Z,79.20
2018-12-31T21:34:58.092Z,79.10
2018-12-31T21:37:57.403Z,79.20
2018-12-31T21:40:56.676Z,79.20
2018-12-31T21:43:57.234Z,79.10
2018-12-31T21:46:56.771Z,79.60
2018-12-31T21:49:56.027Z,79.20
2018-12-31T21:52:56.279Z,79.20
2018-12-31T21:55:57.201Z,79.30
2018-12-31T21:58:56.497Z,79.30
2018-12-31T22:01:56.459Z,79.30
2018-12-31T22:04:56.650Z,79.20
2018-12-31T22:07:57.003Z,79.30
2018-12-31T22:10:56.262Z,79.30
2018-12-31T22:13:55.672Z,79.30
2018-12-31T22:16:55.136Z,79.70
2018-12-31T22:19:56.000Z,79.50
2018-12-31T22:22:55.989Z,79.40
2018-12-31T22:25:55.311Z,79.30
2018-12-31T22:28:56.899Z,79.40
2018-12-31T22:31:56.105Z,79.30
2018-12-31T22:34:55.825Z,79.30
2018-12-31T22:37:55.901Z,79.50
2018-12-31T22:40:55.642Z,79.40
2018-12-31T22:43:55.333Z,79.30
2018-12-31T22:46:58.672Z,79.40
2018-12-31T22:49:58.565Z,79.50
2018-12-31T22:52:59.330Z,79.40
2018-12-31T22:59:29.480Z,79.40
2018-12-31T23:02:30.992Z,79.80
2018-12-31T23:05:34.884Z,79.50
2018-12-31T23:08:34.122Z,79.40
2018-12-31T23:11:34.154Z,79.50
2018-12-31T23:14:35.535Z,79.50
2018-12-31T23:17:35.027Z,79.50
2018-12-31T23:20:34.531Z,79.50
2018-12-31T23:23:37.454Z,79.60
2018-12-31T23:26:38.253Z,79.60
2018-12-31T23:29:48.624Z,79.60
2018-12-31T23:32:49.218Z,79.50
2018-12-31T23:35:49.321Z,79.50
2018-12-31T23:38:49.664Z,79.60
2018-12-31T23:41:53.100Z,79.60
2018-12-31T23:44:53.200Z,79.50
2018-12-31T23:47:52.703Z,78.90
2018-12-31T23:50:52.619Z,79.50
2018-12-31T23:53:52.699Z,79.50
2018-12-31T23:56:52.029Z,79.40
2018-12-31T23:59:51.433Z,79.30
